This is the latest recevied weather packets stored in our database for station/object SQ5ANT-1. If no packets are shown the sender has not sent any weather packets the latest 10 day(s).
| Time | Temp. | Humidity | Pressure | Rain* | Wind** | Luminosity | Snow |
|---|---|---|---|---|---|---|---|
| 1788594612 | 17.22° C | 73% | 998.3 hPa | - | - | - | - |
| 1788594008 | 17.22° C | 73% | 998.3 hPa | - | - | - | - |
| 1788593414 | 17.22° C | 73% | 998.3 hPa | - | - | - | - |
| 1788592212 | 16.67° C | 74% | 998 hPa | - | - | - | - |
| 1788591609 | 16.67° C | 74% | 998 hPa | - | - | - | - |
| 1788590413 | 16.67° C | 78% | 997.4 hPa | - | - | - | - |
| 1788588612 | 16.67° C | 81% | 996.8 hPa | - | - | - | - |
| 1788587410 | 16.11° C | 82% | 996.7 hPa | - | - | - | - |
| 1788586815 | 16.11° C | 80% | 996.4 hPa | - | - | - | - |
| 1788586210 | 16.11° C | 80% | 996.4 hPa | - | - | - | - |
| 1788581415 | 16.67° C | 83% | 995.2 hPa | - | - | - | - |
| 1788580810 | 16.67° C | 83% | 995.2 hPa | - | - | - | - |
| 1788579618 | 16.67° C | 84% | 994.7 hPa | - | - | - | - |
| 1788577227 | 16.67° C | 84% | 994.3 hPa | - | - | - | - |
| 1788576617 | 16.67° C | 84% | 994.2 hPa | - | - | - | - |
| 1788575414 | 16.67° C | 83% | 994.5 hPa | - | - | - | - |
| 1788574212 | 16.67° C | 82% | 994.1 hPa | - | - | - | - |
| 1788573012 | 16.67° C | 83% | 994 hPa | - | - | - | - |
| 1788571210 | 17.22° C | 86% | 994 hPa | - | - | - | - |
| 1788570015 | 17.22° C | 87% | 994 hPa | - | - | - | - |
| 1788568216 | 17.22° C | 87% | 993.9 hPa | - | - | - | - |
| 1788565216 | 17.22° C | 85% | 993.7 hPa | - | - | - | - |
| 1788563412 | 17.78° C | 86% | 993.5 hPa | - | - | - | - |
| 1788560408 | 18.89° C | 82% | 993.6 hPa | - | - | - | - |
| 1788559816 | 19.44° C | 82% | 993.5 hPa | - | - | - | - |
* Rain since midnight (hover to see other rain measurements)
** Current wind speed in m/s (hover to see current wind gust speed)